Time;durP1;ratioP1;P1;durP2;ratioP2;P2;SDS_P1;SDS_P2;PMS_P1;PMS_P2;Temp;Humidity;BMP_temperature;BMP_pressure;BME280_temperature;BME280_humidity;BME280_pressure;Samples;Min_cycle;Max_cycle;Signal;HPM_P1;HPM_P2
2023/12/12 00:02:42;;;;;;;1.87;1.20;;;6.90;99.90;;;;;;7837268;28;20239;-85
2023/12/12 00:06:30;;;;;;;2.63;1.20;;;6.90;99.90;;;;;;7835709;28;20198;-86
2023/12/12 00:10:16;;;;;;;2.73;1.00;;;6.90;99.90;;;;;;7866642;28;20276;-86
2023/12/12 00:14:01;;;;;;;2.73;1.20;;;6.90;99.90;;;;;;7845612;28;20212;-86
2023/12/12 00:17:47;;;;;;;3.27;1.20;;;7.00;99.90;;;;;;7837091;28;20186;-86
2023/12/12 00:21:33;;;;;;;4.77;1.30;;;6.90;99.90;;;;;;7835929;28;20178;-85
2023/12/12 00:25:18;;;;;;;1.60;1.00;;;6.90;99.90;;;;;;7848221;28;20206;-85
2023/12/12 00:29:04;;;;;;;5.73;1.50;;;7.00;99.90;;;;;;7847331;28;20185;-86
2023/12/12 00:32:50;;;;;;;3.30;1.33;;;7.00;99.90;;;;;;7837311;28;20630;-85
2023/12/12 00:36:35;;;;;;;6.40;1.30;;;7.00;99.90;;;;;;7840586;28;20202;-85
2023/12/12 00:40:21;;;;;;;1.77;1.10;;;7.00;99.90;;;;;;7855382;28;20208;-86
2023/12/12 00:44:06;;;;;;;3.93;1.33;;;6.90;99.90;;;;;;7871623;28;20201;-87
2023/12/12 00:47:52;;;;;;;3.60;1.17;;;7.00;99.90;;;;;;7869505;28;20182;-86
2023/12/12 00:51:38;;;;;;;2.10;1.20;;;7.00;99.90;;;;;;7847186;28;20662;-86
2023/12/12 00:55:24;;;;;;;8.60;1.80;;;7.00;99.90;;;;;;7873456;28;20585;-86
2023/12/12 00:59:09;;;;;;;2.63;1.40;;;7.00;99.90;;;;;;7847074;28;20174;-86
2023/12/12 01:02:55;;;;;;;4.33;1.60;;;7.00;99.90;;;;;;7850017;28;20619;-85
2023/12/12 01:06:40;;;;;;;4.13;1.30;;;7.00;99.90;;;;;;7871904;28;20251;-86
2023/12/12 01:10:26;;;;;;;4.13;1.80;;;7.00;99.90;;;;;;7859604;28;20227;-86
2023/12/12 01:14:13;;;;;;;4.93;1.67;;;7.00;99.90;;;;;;7840734;28;20214;-85
2023/12/12 01:17:59;;;;;;;2.50;1.73;;;7.00;99.90;;;;;;7866068;28;20549;-86
2023/12/12 01:21:44;;;;;;;3.03;1.40;;;7.00;99.90;;;;;;7855290;28;20173;-86
2023/12/12 01:25:31;;;;;;;3.07;1.50;;;7.00;99.90;;;;;;7871740;28;20674;-86
2023/12/12 01:29:17;;;;;;;3.37;1.83;;;6.90;99.90;;;;;;7871327;28;20708;-86
2023/12/12 01:33:02;;;;;;;3.67;1.70;;;6.80;99.90;;;;;;7855278;28;20563;-86
2023/12/12 01:36:48;;;;;;;3.43;1.70;;;6.80;99.90;;;;;;7851989;28;20480;-85
2023/12/12 01:40:34;;;;;;;5.00;1.70;;;6.80;99.90;;;;;;7839398;28;20186;-85
2023/12/12 01:44:19;;;;;;;3.07;1.70;;;6.70;99.90;;;;;;7840676;28;20205;-85
2023/12/12 01:48:05;;;;;;;2.33;1.50;;;6.70;99.90;;;;;;7841616;28;20180;-86
2023/12/12 01:51:51;;;;;;;4.23;1.43;;;6.60;99.90;;;;;;7869611;28;20658;-86
2023/12/12 01:55:37;;;;;;;2.90;1.57;;;6.60;99.90;;;;;;7854455;28;20214;-85
2023/12/12 01:59:24;;;;;;;3.10;1.47;;;6.60;99.90;;;;;;7850748;28;20193;-85
2023/12/12 02:03:10;;;;;;;3.00;1.37;;;6.50;99.90;;;;;;7858442;28;20231;-85
2023/12/12 02:06:57;;;;;;;5.30;1.80;;;6.60;99.90;;;;;;7854230;28;20205;-86
2023/12/12 02:10:43;;;;;;;3.93;1.60;;;6.60;99.90;;;;;;7869486;28;20223;-86
2023/12/12 02:14:28;;;;;;;5.73;1.93;;;6.60;99.90;;;;;;7859357;28;20221;-85
2023/12/12 02:18:14;;;;;;;4.87;1.70;;;6.60;99.90;;;;;;7869129;28;20216;-85
2023/12/12 02:22:00;;;;;;;5.77;2.03;;;6.70;99.90;;;;;;7869031;28;20166;-85
2023/12/12 02:25:45;;;;;;;2.10;1.47;;;6.70;99.90;;;;;;7865797;28;20205;-86
2023/12/12 02:29:31;;;;;;;2.80;1.27;;;6.60;99.90;;;;;;7870026;28;20647;-85
2023/12/12 02:33:17;;;;;;;2.83;1.63;;;6.60;99.90;;;;;;7840853;28;20206;-85
2023/12/12 02:37:03;;;;;;;2.30;1.40;;;6.70;99.90;;;;;;7844798;28;20179;-85
2023/12/12 02:40:49;;;;;;;2.97;1.50;;;6.60;99.90;;;;;;7852240;28;20585;-85
2023/12/12 02:44:34;;;;;;;3.77;1.63;;;6.60;99.90;;;;;;7851749;28;20579;-85
2023/12/12 02:48:20;;;;;;;4.33;1.83;;;6.60;99.90;;;;;;7848694;28;20205;-85
2023/12/12 02:52:05;;;;;;;1.80;1.40;;;6.60;99.90;;;;;;7836737;28;20198;-86
2023/12/12 02:55:51;;;;;;;2.70;1.83;;;6.50;99.90;;;;;;7866334;28;20274;-85
2023/12/12 02:59:37;;;;;;;4.70;1.50;;;6.50;99.90;;;;;;7856947;28;20177;-85
2023/12/12 03:03:22;;;;;;;3.17;1.50;;;6.60;99.90;;;;;;7851060;28;20173;-84
2023/12/12 03:07:08;;;;;;;2.17;1.73;;;6.60;99.90;;;;;;7863264;28;20312;-85
2023/12/12 03:10:53;;;;;;;4.67;1.57;;;6.60;99.90;;;;;;7854261;28;20216;-86
2023/12/12 03:14:39;;;;;;;2.00;1.57;;;6.60;99.90;;;;;;7836103;28;20210;-86
2023/12/12 03:18:25;;;;;;;1.43;1.33;;;6.60;99.90;;;;;;7839116;28;20257;-86
2023/12/12 03:22:10;;;;;;;2.83;1.50;;;6.50;99.90;;;;;;7858251;28;20200;-84
2023/12/12 03:25:56;;;;;;;1.93;1.60;;;6.60;99.90;;;;;;7908068;28;20203;-85
2023/12/12 03:29:41;;;;;;;3.67;1.53;;;6.50;99.90;;;;;;7879695;28;20189;-86
2023/12/12 03:33:27;;;;;;;3.40;1.80;;;6.50;99.90;;;;;;7836858;28;20206;-85
2023/12/12 03:37:13;;;;;;;5.53;2.13;;;6.50;99.90;;;;;;7856137;28;20186;-84
2023/12/12 03:40:59;;;;;;;2.40;1.43;;;6.50;99.90;;;;;;7852169;28;20178;-85
2023/12/12 03:44:44;;;;;;;2.37;1.50;;;6.50;99.90;;;;;;7841019;28;20212;-85
2023/12/12 03:48:30;;;;;;;4.43;1.57;;;6.50;99.90;;;;;;7855495;28;20606;-85
2023/12/12 03:52:15;;;;;;;2.60;1.40;;;6.50;99.90;;;;;;7866607;28;20266;-84
2023/12/12 03:56:01;;;;;;;1.83;1.30;;;6.50;99.90;;;;;;7867561;28;20674;-85
2023/12/12 03:59:47;;;;;;;3.73;1.63;;;6.60;99.90;;;;;;7860121;28;20185;-85
2023/12/12 04:03:33;;;;;;;1.80;1.60;;;6.60;99.90;;;;;;7857136;28;20213;-83
2023/12/12 04:07:18;;;;;;;3.03;1.40;;;6.50;99.90;;;;;;7836331;28;20174;-84
2023/12/12 04:11:04;;;;;;;2.13;1.57;;;6.50;99.90;;;;;;7852465;28;20201;-84
2023/12/12 04:14:49;;;;;;;2.00;1.20;;;6.50;99.90;;;;;;7865669;28;20668;-84
2023/12/12 04:18:35;;;;;;;3.23;1.63;;;6.60;99.90;;;;;;7860504;28;20181;-85
2023/12/12 04:22:21;;;;;;;2.83;1.53;;;6.50;99.90;;;;;;7872280;28;20177;-84
2023/12/12 04:26:06;;;;;;;2.73;1.70;;;6.60;99.90;;;;;;7863881;28;20202;-85
2023/12/12 04:29:52;;;;;;;4.27;1.73;;;6.60;99.90;;;;;;7849069;28;20193;-85
2023/12/12 04:33:38;;;;;;;4.63;1.80;;;6.60;99.90;;;;;;7840919;28;20214;-85
2023/12/12 04:37:24;;;;;;;3.83;1.80;;;6.60;99.90;;;;;;7841605;28;20533;-84
2023/12/12 04:41:09;;;;;;;5.90;2.10;;;6.50;99.90;;;;;;7856230;28;20272;-84
2023/12/12 04:44:55;;;;;;;2.93;1.80;;;6.50;99.90;;;;;;7868550;28;20935;-85
2023/12/12 04:48:41;;;;;;;3.47;2.17;;;6.50;99.90;;;;;;7845825;28;20643;-84
2023/12/12 04:52:27;;;;;;;4.07;2.13;;;6.50;99.90;;;;;;7846122;28;20708;-84
2023/12/12 04:56:13;;;;;;;6.93;3.23;;;6.60;99.90;;;;;;7839922;28;20332;-84
2023/12/12 04:59:59;;;;;;;5.87;3.50;;;6.60;99.90;;;;;;7848916;28;20189;-84
2023/12/12 05:03:44;;;;;;;7.13;3.70;;;6.60;99.90;;;;;;7864863;28;20221;-85
2023/12/12 05:07:30;;;;;;;3.57;2.90;;;6.60;99.90;;;;;;7840124;28;20305;-85
2023/12/12 05:11:16;;;;;;;3.87;2.53;;;6.50;99.90;;;;;;7857957;28;20198;-85
2023/12/12 05:15:02;;;;;;;4.73;2.80;;;6.50;99.90;;;;;;7860685;28;20245;-84
2023/12/12 05:18:47;;;;;;;5.47;3.20;;;6.60;99.90;;;;;;7860865;28;20594;-84
2023/12/12 05:22:34;;;;;;;7.40;3.80;;;6.60;99.90;;;;;;7849714;28;20570;-84
2023/12/12 05:26:20;;;;;;;7.20;4.23;;;6.50;99.90;;;;;;7852508;28;20668;-84
2023/12/12 05:30:06;;;;;;;5.47;3.73;;;6.50;99.90;;;;;;7851368;28;20528;-84
2023/12/12 05:33:52;;;;;;;3.80;2.70;;;6.50;99.90;;;;;;7853072;28;20232;-84
2023/12/12 05:37:37;;;;;;;4.17;2.77;;;6.60;99.90;;;;;;7856681;28;20189;-85
2023/12/12 05:41:23;;;;;;;5.90;3.20;;;6.50;99.90;;;;;;7849109;28;20186;-86
2023/12/12 05:45:09;;;;;;;6.80;3.17;;;6.50;99.90;;;;;;7838652;28;20202;-85
2023/12/12 05:48:54;;;;;;;3.27;2.30;;;6.50;99.90;;;;;;7857962;28;20197;-84
2023/12/12 05:52:40;;;;;;;3.33;2.33;;;6.50;99.90;;;;;;7851818;28;20201;-86
2023/12/12 05:56:26;;;;;;;6.43;3.00;;;6.50;99.90;;;;;;7858418;28;20232;-87
2023/12/12 06:00:12;;;;;;;6.17;2.40;;;6.50;99.90;;;;;;7866268;28;20185;-85
2023/12/12 06:03:58;;;;;;;4.27;2.83;;;6.50;99.90;;;;;;7840990;28;20251;-85
2023/12/12 06:07:44;;;;;;;7.37;2.90;;;6.50;99.90;;;;;;7850214;28;20213;-85
2023/12/12 06:11:29;;;;;;;4.47;2.80;;;6.30;99.90;;;;;;7839494;28;20193;-85
2023/12/12 06:15:15;;;;;;;7.50;3.20;;;6.40;99.90;;;;;;7858966;28;20303;-86
2023/12/12 06:19:05;;;;;;;6.17;2.80;;;6.40;99.90;;;;;;7866983;28;20185;-85
2023/12/12 06:22:51;;;;;;;4.23;2.43;;;6.40;99.90;;;;;;7868861;28;20189;-85
2023/12/12 06:26:37;;;;;;;4.60;2.40;;;6.40;99.90;;;;;;7860555;28;20217;-85
2023/12/12 06:30:23;;;;;;;5.10;2.90;;;6.40;99.90;;;;;;7862809;28;20181;-86
2023/12/12 06:34:10;;;;;;;4.97;3.00;;;6.40;99.90;;;;;;7856486;28;20206;-86
2023/12/12 06:37:56;;;;;;;6.97;3.30;;;6.40;99.90;;;;;;7838577;28;20189;-85
2023/12/12 06:41:42;;;;;;;4.57;2.63;;;6.30;99.90;;;;;;7835954;28;20170;-85
2023/12/12 06:45:27;;;;;;;4.87;2.73;;;6.30;99.90;;;;;;7842768;28;20272;-85
2023/12/12 06:49:13;;;;;;;6.60;3.27;;;6.30;99.90;;;;;;7867583;28;20197;-85
2023/12/12 06:52:58;;;;;;;10.10;3.90;;;6.30;99.90;;;;;;7867751;28;20236;-85
2023/12/12 06:56:44;;;;;;;5.03;2.97;;;6.40;99.90;;;;;;7867526;28;20228;-85
2023/12/12 07:00:30;;;;;;;7.47;3.60;;;6.30;99.90;;;;;;7864466;28;20749;-85
2023/12/12 07:04:16;;;;;;;5.47;3.10;;;6.30;99.90;;;;;;7860842;28;20212;-86
2023/12/12 07:08:02;;;;;;;5.00;3.10;;;6.30;99.90;;;;;;7868509;28;20698;-85
2023/12/12 07:11:47;;;;;;;8.10;4.20;;;6.30;99.90;;;;;;7867323;28;20212;-85
2023/12/12 07:15:33;;;;;;;5.53;3.20;;;6.30;99.90;;;;;;7867084;28;20209;-85
2023/12/12 07:19:19;;;;;;;7.27;3.33;;;6.30;99.90;;;;;;7849751;28;20245;-85
2023/12/12 07:23:05;;;;;;;6.50;3.20;;;6.40;99.90;;;;;;7836341;28;20212;-85
2023/12/12 07:26:50;;;;;;;6.07;3.43;;;6.40;99.90;;;;;;7838475;28;20213;-85
2023/12/12 07:30:36;;;;;;;5.80;3.60;;;6.40;99.90;;;;;;7865007;28;20487;-86
2023/12/12 07:34:21;;;;;;;8.37;3.97;;;6.50;99.90;;;;;;7847217;28;20214;-85
2023/12/12 07:38:07;;;;;;;9.30;3.50;;;6.40;99.90;;;;;;7848325;28;20256;-85
2023/12/12 07:41:53;;;;;;;5.33;3.13;;;6.50;99.90;;;;;;7865883;28;20181;-84
2023/12/12 07:45:38;;;;;;;4.87;2.83;;;6.50;99.90;;;;;;7847204;28;20737;-85
2023/12/12 07:49:24;;;;;;;6.23;3.20;;;6.50;99.90;;;;;;7852346;28;20316;-85
2023/12/12 07:53:10;;;;;;;7.57;3.97;;;6.50;99.90;;;;;;7838716;28;20206;-84
2023/12/12 07:56:55;;;;;;;11.33;4.17;;;6.50;99.90;;;;;;7899626;28;20193;-84
2023/12/12 08:00:41;;;;;;;9.30;3.80;;;6.40;99.90;;;;;;7905815;28;20170;-84
2023/12/12 08:04:27;;;;;;;8.13;3.37;;;6.50;99.90;;;;;;7840074;28;20586;-86
2023/12/12 08:08:13;;;;;;;6.97;3.47;;;6.50;99.90;;;;;;7856498;28;20288;-86
2023/12/12 08:11:59;;;;;;;5.13;3.10;;;6.50;99.90;;;;;;7866287;28;20189;-86
2023/12/12 08:15:44;;;;;;;8.03;3.37;;;6.60;99.90;;;;;;7866030;28;20213;-86
2023/12/12 08:19:30;;;;;;;4.87;2.93;;;6.60;99.90;;;;;;7866513;28;20181;-85
2023/12/12 08:23:16;;;;;;;6.73;2.77;;;6.60;99.90;;;;;;7867002;28;20208;-86
2023/12/12 08:27:02;;;;;;;9.37;3.40;;;6.60;99.90;;;;;;7867307;28;20181;-86
2023/12/12 08:30:47;;;;;;;4.47;2.93;;;6.60;99.90;;;;;;7866036;28;20191;-86
2023/12/12 08:34:33;;;;;;;5.73;2.60;;;6.70;99.90;;;;;;7865873;28;20812;-85
2023/12/12 08:38:19;;;;;;;4.60;2.60;;;6.70;99.90;;;;;;7865999;28;20209;-86
2023/12/12 08:42:04;;;;;;;4.70;2.50;;;6.70;99.90;;;;;;7865630;28;20177;-85
2023/12/12 08:45:52;;;;;;;6.70;2.43;;;6.70;99.90;;;;;;7864958;28;20228;-85
2023/12/12 08:49:38;;;;;;;5.10;2.50;;;6.70;99.90;;;;;;7866810;28;20173;-85
2023/12/12 08:53:26;;;;;;;5.43;2.50;;;6.60;99.90;;;;;;7863631;28;20296;-85
2023/12/12 08:57:13;;;;;;;8.93;2.60;;;6.70;99.90;;;;;;7865582;28;20323;-85
2023/12/12 09:00:59;;;;;;;4.43;2.50;;;6.70;99.90;;;;;;7846215;28;20189;-86
2023/12/12 09:04:45;;;;;;;5.80;2.80;;;6.70;99.90;;;;;;7863620;28;20213;-86
2023/12/12 09:08:30;;;;;;;6.20;2.77;;;6.70;99.90;;;;;;7858521;28;20196;-86
2023/12/12 09:12:16;;;;;;;8.30;2.67;;;6.60;99.90;;;;;;7871201;28;20646;-86
2023/12/12 09:16:01;;;;;;;6.90;2.90;;;6.70;99.90;;;;;;7870864;28;20582;-85
2023/12/12 09:19:47;;;;;;;8.87;3.70;;;6.70;99.90;;;;;;7870603;28;20208;-86
2023/12/12 09:23:33;;;;;;;14.70;7.90;;;6.70;99.90;;;;;;7870684;28;20230;-86
2023/12/12 09:27:18;;;;;;;9.47;4.33;;;6.60;99.90;;;;;;7870275;28;20212;-85
2023/12/12 09:31:04;;;;;;;5.87;3.50;;;6.70;99.90;;;;;;7869797;28;20757;-86
2023/12/12 09:34:50;;;;;;;7.07;3.17;;;6.70;99.90;;;;;;7871549;28;20690;-85
2023/12/12 09:38:36;;;;;;;6.50;2.93;;;6.70;99.90;;;;;;7870289;28;20185;-86
2023/12/12 09:42:24;;;;;;;8.03;3.23;;;6.60;99.90;;;;;;7855075;28;20277;-85
2023/12/12 09:46:09;;;;;;;10.00;3.10;;;6.80;99.90;;;;;;7852416;28;20208;-86
2023/12/12 09:49:57;;;;;;;9.40;3.23;;;6.70;99.90;;;;;;7869576;28;20178;-86
2023/12/12 09:53:46;;;;;;;7.43;2.60;;;6.70;99.90;;;;;;7845164;28;20225;-85
2023/12/12 09:57:33;;;;;;;6.93;3.23;;;6.70;99.90;;;;;;7844775;28;20219;-87
2023/12/12 10:01:18;;;;;;;6.57;3.13;;;6.70;99.90;;;;;;7869708;28;20591;-87
2023/12/12 10:05:05;;;;;;;9.73;3.10;;;6.70;99.90;;;;;;7868987;28;20607;-87
2023/12/12 10:08:50;;;;;;;6.70;2.80;;;6.70;99.90;;;;;;7868735;28;20239;-86
2023/12/12 10:12:36;;;;;;;6.47;3.00;;;6.70;99.90;;;;;;7864829;28;20185;-86
2023/12/12 10:16:22;;;;;;;7.13;2.87;;;6.70;99.90;;;;;;7869812;28;20204;-85
2023/12/12 10:20:10;;;;;;;5.77;2.70;;;6.70;99.90;;;;;;7852472;28;20189;-86
2023/12/12 10:23:56;;;;;;;6.30;2.50;;;6.70;99.90;;;;;;7842886;28;20642;-85
2023/12/12 10:27:42;;;;;;;9.33;2.63;;;6.70;99.90;;;;;;7837521;28;20294;-85
2023/12/12 10:31:28;;;;;;;7.83;2.90;;;6.70;99.90;;;;;;7837313;28;20174;-85
2023/12/12 10:35:14;;;;;;;10.80;6.53;;;6.70;99.90;;;;;;7836769;28;20210;-84
2023/12/12 10:39:14;;;;;;;9.83;4.43;;;6.70;99.90;;;;;;7851003;28;20276;-85
2023/12/12 10:43:00;;;;;;;8.50;3.03;;;6.70;99.90;;;;;;7867525;28;20185;-85
2023/12/12 10:46:47;;;;;;;6.30;3.57;;;6.60;99.90;;;;;;7867680;28;20672;-85
2023/12/12 10:50:34;;;;;;;6.93;3.10;;;6.70;99.90;;;;;;7842949;28;20259;-85
2023/12/12 10:54:22;;;;;;;9.60;5.10;;;6.80;99.90;;;;;;7836508;28;20237;-86
2023/12/12 10:58:09;;;;;;;9.83;2.90;;;6.80;99.90;;;;;;7841774;28;20192;-85
2023/12/12 11:01:56;;;;;;;5.37;2.40;;;6.90;99.90;;;;;;7852288;28;20910;-85
2023/12/12 11:05:42;;;;;;;5.67;2.13;;;6.90;99.90;;;;;;7848037;28;20224;-85
2023/12/12 11:09:28;;;;;;;10.70;3.03;;;6.90;99.90;;;;;;7862346;28;20181;-84
2023/12/12 11:13:15;;;;;;;6.17;2.57;;;7.00;99.90;;;;;;7864031;28;20212;-85
2023/12/12 11:17:01;;;;;;;8.47;4.10;;;7.10;99.90;;;;;;7862907;28;20219;-85
2023/12/12 11:20:47;;;;;;;11.13;3.27;;;7.20;99.90;;;;;;7844189;28;20190;-86
2023/12/12 11:25:17;;;;;;;7.47;2.10;;;7.20;99.90;;;;;;7846536;28;20201;-85
2023/12/12 11:29:06;;;;;;;8.23;2.77;;;7.30;99.90;;;;;;7741158;28;20601;-85
2023/12/12 11:32:55;;;;;;;7.17;2.60;;;7.30;99.90;;;;;;7740122;28;20191;-85
2023/12/12 11:36:59;;;;;;;4.73;1.80;;;7.30;99.90;;;;;;7747625;28;20887;-85
2023/12/12 11:41:13;;;;;;;7.33;2.53;;;7.40;99.90;;;;;;7750944;28;20640;-85
2023/12/12 11:44:59;;;;;;;5.10;2.03;;;7.40;99.90;;;;;;7766419;28;20912;-85
2023/12/12 11:48:45;;;;;;;5.17;2.10;;;7.40;99.90;;;;;;7754630;28;20253;-86
2023/12/12 11:52:37;;;;;;;5.90;1.80;;;7.50;99.90;;;;;;7770600;28;20373;-86
2023/12/12 11:56:22;;;;;;;5.03;1.70;;;7.50;99.90;;;;;;7744494;28;20624;-85
2023/12/12 12:00:08;;;;;;;9.30;2.33;;;7.50;99.90;;;;;;7835386;28;20305;-86
2023/12/12 12:03:54;;;;;;;4.13;1.93;;;7.50;99.90;;;;;;7866005;28;20206;-86
2023/12/12 12:07:40;;;;;;;3.70;1.70;;;7.50;99.90;;;;;;7866616;28;20185;-85
2023/12/12 12:11:39;;;;;;;6.53;1.40;;;7.60;99.90;;;;;;7864454;28;20231;-88
2023/12/12 12:15:26;;;;;;;4.60;1.63;;;7.70;99.90;;;;;;7850059;28;20220;-87
2023/12/12 12:19:29;;;;;;;6.70;1.80;;;7.80;99.90;;;;;;7835234;28;20631;-88
2023/12/12 12:23:15;;;;;;;6.87;2.23;;;7.90;99.90;;;;;;7835315;28;20182;-85
2023/12/12 12:27:00;;;;;;;7.50;1.80;;;7.90;99.90;;;;;;7865420;28;20197;-86
2023/12/12 12:30:46;;;;;;;6.20;2.13;;;8.00;99.90;;;;;;7866026;28;20264;-85
2023/12/12 12:34:35;;;;;;;8.20;2.07;;;8.10;99.90;;;;;;7869200;28;20210;-84
2023/12/12 12:38:29;;;;;;;6.00;2.00;;;8.10;99.90;;;;;;7898687;28;20292;-84
2023/12/12 12:42:14;;;;;;;6.80;1.80;;;8.10;99.90;;;;;;7856976;28;20227;-86
2023/12/12 12:46:09;;;;;;;4.43;1.97;;;8.10;99.90;;;;;;7863944;28;20248;-84
2023/12/12 12:49:55;;;;;;;8.30;1.97;;;8.20;99.90;;;;;;7861042;28;20183;-84
2023/12/12 12:53:40;;;;;;;7.00;2.00;;;8.20;99.90;;;;;;7871849;28;20694;-84
2023/12/12 12:57:26;;;;;;;11.37;5.40;;;8.20;99.90;;;;;;7858362;28;20224;-84
2023/12/12 13:01:12;;;;;;;5.17;2.33;;;8.20;99.90;;;;;;7866744;28;20255;-84
2023/12/12 13:04:57;;;;;;;7.37;2.10;;;8.20;99.90;;;;;;7855450;28;20214;-83
2023/12/12 13:08:45;;;;;;;5.43;2.30;;;8.20;99.90;;;;;;7840093;28;20185;-84
2023/12/12 13:12:30;;;;;;;5.83;2.13;;;8.00;99.90;;;;;;7843548;28;20185;-84
2023/12/12 13:16:18;;;;;;;9.10;2.33;;;8.00;99.90;;;;;;7855433;28;20687;-83
2023/12/12 13:20:11;;;;;;;11.40;7.60;;;7.90;99.90;;;;;;7839372;28;20212;-84
2023/12/12 13:23:57;;;;;;;8.00;3.07;;;7.80;99.90;;;;;;7862574;28;20201;-83
2023/12/12 13:27:42;;;;;;;7.23;2.60;;;7.90;99.90;;;;;;7866594;28;20259;-85
2023/12/12 13:31:31;;;;;;;7.50;3.70;;;7.80;99.90;;;;;;7896853;28;20193;-86
2023/12/12 13:35:17;;;;;;;10.53;3.93;;;7.80;99.90;;;;;;7868683;28;20295;-85
2023/12/12 13:39:04;;;;;;;7.73;2.03;;;7.80;99.90;;;;;;7866061;28;20197;-86
2023/12/12 13:42:49;;;;;;;155.07;78.83;;;7.70;99.90;;;;;;7855705;28;20862;-86
2023/12/12 13:46:35;;;;;;;119.27;62.00;;;7.70;99.90;;;;;;7869795;28;20534;-86
2023/12/12 13:50:21;;;;;;;50.53;31.67;;;7.70;99.90;;;;;;7861246;28;20521;-85
2023/12/12 13:54:07;;;;;;;29.27;18.30;;;7.70;99.90;;;;;;7851935;28;20208;-84
2023/12/12 13:57:52;;;;;;;38.20;20.50;;;7.80;99.90;;;;;;7869896;28;20173;-86
2023/12/12 14:01:38;;;;;;;14.80;6.87;;;7.70;99.90;;;;;;7850229;28;20178;-86
2023/12/12 14:05:24;;;;;;;7.80;3.43;;;7.70;99.90;;;;;;7839534;28;20220;-86
2023/12/12 14:09:09;;;;;;;5.80;2.20;;;7.70;99.90;;;;;;7861044;28;20207;-85
2023/12/12 14:12:59;;;;;;;4.20;1.70;;;7.60;99.90;;;;;;7900031;28;20216;-86
2023/12/12 14:16:45;;;;;;;9.03;2.53;;;7.60;99.90;;;;;;7877015;28;20210;-85
2023/12/12 14:20:31;;;;;;;6.30;2.40;;;7.50;99.90;;;;;;7853547;28;20178;-86
2023/12/12 14:24:17;;;;;;;5.37;2.30;;;7.60;99.90;;;;;;7853240;28;20230;-85
2023/12/12 14:28:03;;;;;;;8.20;2.10;;;7.50;99.90;;;;;;7851833;28;20236;-86
2023/12/12 14:31:49;;;;;;;5.73;1.97;;;7.40;99.90;;;;;;7863337;28;20233;-86
2023/12/12 14:35:34;;;;;;;6.10;2.13;;;7.40;99.90;;;;;;7843108;28;20213;-86
2023/12/12 14:39:22;;;;;;;7.90;3.00;;;7.40;99.90;;;;;;7840090;28;20281;-86
2023/12/12 14:43:08;;;;;;;8.20;3.80;;;7.40;99.90;;;;;;7838419;28;20260;-86
2023/12/12 14:46:54;;;;;;;8.70;2.30;;;7.40;99.90;;;;;;7858159;28;20208;-86
2023/12/12 14:50:41;;;;;;;8.63;2.27;;;7.40;99.90;;;;;;7836782;28;20218;-85
2023/12/12 14:54:27;;;;;;;4.03;2.13;;;7.40;99.90;;;;;;7861285;28;20713;-85
2023/12/12 14:58:14;;;;;;;6.63;1.93;;;7.40;99.90;;;;;;7843004;28;20255;-86
2023/12/12 15:02:00;;;;;;;6.57;2.30;;;7.30;99.90;;;;;;7845796;28;20185;-85
2023/12/12 15:05:45;;;;;;;4.50;2.30;;;7.30;99.90;;;;;;7867593;28;20221;-85
2023/12/12 15:09:31;;;;;;;7.17;2.40;;;7.30;99.90;;;;;;7867837;28;20181;-85
2023/12/12 15:13:17;;;;;;;5.23;2.13;;;7.30;99.90;;;;;;7867283;28;20359;-86
2023/12/12 15:17:03;;;;;;;5.90;2.27;;;7.30;99.90;;;;;;7866274;28;20548;-85
2023/12/12 15:20:48;;;;;;;7.63;2.27;;;7.30;99.90;;;;;;7865876;28;20188;-85
2023/12/12 15:24:34;;;;;;;5.47;2.20;;;7.20;99.90;;;;;;7851256;28;20289;-86
2023/12/12 15:28:20;;;;;;;4.37;1.90;;;7.20;99.90;;;;;;7851778;28;20662;-85
2023/12/12 15:32:06;;;;;;;8.80;2.07;;;7.20;99.90;;;;;;7851366;28;20174;-86
2023/12/12 15:35:52;;;;;;;5.20;1.87;;;7.10;99.90;;;;;;7848235;28;20307;-86
2023/12/12 15:39:37;;;;;;;5.23;1.83;;;7.10;99.90;;;;;;7845081;28;20190;-85
2023/12/12 15:43:23;;;;;;;5.43;1.93;;;7.20;99.90;;;;;;7860566;28;20219;-85
2023/12/12 15:47:09;;;;;;;32.67;2.97;;;7.10;99.90;;;;;;7847906;28;20197;-86
2023/12/12 15:50:54;;;;;;;10.47;2.60;;;7.10;99.90;;;;;;7851930;28;20871;-85
2023/12/12 15:54:40;;;;;;;6.00;2.40;;;7.10;99.90;;;;;;7860078;28;20669;-85
2023/12/12 15:58:25;;;;;;;9.13;2.50;;;7.10;99.90;;;;;;7855107;28;20189;-86
2023/12/12 16:02:11;;;;;;;7.70;2.83;;;7.10;99.90;;;;;;7860780;28;20181;-86
2023/12/12 16:05:57;;;;;;;5.13;2.50;;;7.00;99.90;;;;;;7840236;28;20275;-85
2023/12/12 16:09:43;;;;;;;4.87;2.70;;;7.00;99.90;;;;;;7844667;28;20213;-85
2023/12/12 16:13:28;;;;;;;13.17;3.57;;;7.00;99.90;;;;;;7856086;28;20562;-85
2023/12/12 16:17:14;;;;;;;9.37;2.43;;;7.10;99.90;;;;;;7872228;28;20172;-86
2023/12/12 16:21:00;;;;;;;8.00;3.00;;;7.10;99.90;;;;;;7872365;28;20165;-85
2023/12/12 16:24:47;;;;;;;9.07;2.70;;;7.00;99.90;;;;;;7854854;28;20202;-85
2023/12/12 16:28:32;;;;;;;6.83;2.70;;;7.00;99.90;;;;;;7842274;28;20258;-85
2023/12/12 16:32:18;;;;;;;10.33;2.80;;;7.00;99.90;;;;;;7846034;28;20177;-84
2023/12/12 16:36:04;;;;;;;8.33;2.77;;;6.90;99.90;;;;;;7845617;28;20202;-85
2023/12/12 16:39:50;;;;;;;7.70;3.20;;;6.90;99.90;;;;;;7844105;28;20230;-84
2023/12/12 16:43:35;;;;;;;11.67;3.00;;;6.90;99.90;;;;;;7858975;28;20181;-85
2023/12/12 16:47:25;;;;;;;10.20;3.23;;;6.90;99.90;;;;;;7877259;28;20181;-85
2023/12/12 16:51:10;;;;;;;10.43;4.07;;;6.90;99.90;;;;;;7861230;28;20273;-86
2023/12/12 16:54:58;;;;;;;9.30;2.97;;;6.70;99.90;;;;;;7863619;28;20260;-85
2023/12/12 16:58:43;;;;;;;10.73;3.37;;;6.80;99.90;;;;;;7860706;28;20170;-85
2023/12/12 17:02:29;;;;;;;11.33;3.70;;;6.80;99.90;;;;;;7868608;28;20192;-85
2023/12/12 17:06:15;;;;;;;7.87;3.37;;;6.80;99.90;;;;;;7893493;28;20221;-87
2023/12/12 17:10:06;;;;;;;9.73;3.30;;;6.90;99.90;;;;;;7908133;28;20212;-86
2023/12/12 17:13:51;;;;;;;7.70;3.00;;;6.80;99.90;;;;;;7853807;28;20209;-85
2023/12/12 17:17:37;;;;;;;11.00;3.50;;;6.90;99.90;;;;;;7857710;28;20238;-87
2023/12/12 17:21:23;;;;;;;7.73;3.20;;;6.80;99.90;;;;;;7851986;28;20188;-86
2023/12/12 17:25:09;;;;;;;8.00;3.03;;;6.90;99.90;;;;;;7865919;28;20201;-85
2023/12/12 17:28:54;;;;;;;13.10;3.20;;;6.90;99.90;;;;;;7864071;28;20243;-87
2023/12/12 17:32:41;;;;;;;5.33;2.37;;;6.80;99.90;;;;;;7854771;28;20235;-85
2023/12/12 17:36:27;;;;;;;4.23;2.57;;;6.70;99.90;;;;;;7859077;28;20236;-86
2023/12/12 17:40:14;;;;;;;11.47;3.47;;;6.80;99.90;;;;;;7849187;28;20189;-87
2023/12/12 17:43:59;;;;;;;6.57;2.73;;;6.70;99.90;;;;;;7853052;28;20596;-87
2023/12/12 17:47:45;;;;;;;8.70;3.03;;;6.70;99.90;;;;;;7864356;28;20589;-87
2023/12/12 17:51:31;;;;;;;7.20;2.80;;;6.70;99.90;;;;;;7870027;28;20596;-85
2023/12/12 17:55:16;;;;;;;7.70;2.83;;;6.70;99.90;;;;;;7849765;28;20213;-86
2023/12/12 17:59:02;;;;;;;6.57;3.00;;;6.80;99.90;;;;;;7857000;28;20213;-86
2023/12/12 18:02:48;;;;;;;9.53;3.10;;;6.80;99.90;;;;;;7858193;28;20197;-84
2023/12/12 18:06:34;;;;;;;9.87;2.80;;;6.80;99.90;;;;;;7856066;28;20208;-84
2023/12/12 18:10:20;;;;;;;7.70;2.40;;;6.80;99.90;;;;;;7860952;28;20212;-85
2023/12/12 18:14:06;;;;;;;6.93;3.33;;;6.80;99.90;;;;;;7848597;28;20213;-86
2023/12/12 18:17:52;;;;;;;11.30;3.10;;;6.80;99.90;;;;;;7860060;28;20178;-86
2023/12/12 18:21:37;;;;;;;6.97;2.60;;;6.70;99.90;;;;;;7846479;28;20177;-86
2023/12/12 18:25:23;;;;;;;7.60;3.20;;;6.70;99.90;;;;;;7849974;28;20201;-85
2023/12/12 18:29:11;;;;;;;11.47;3.40;;;6.60;99.90;;;;;;7845903;28;20201;-85
2023/12/12 18:32:57;;;;;;;12.37;3.43;;;6.70;99.90;;;;;;7866110;28;20181;-84
2023/12/12 18:36:44;;;;;;;8.33;2.70;;;6.60;99.90;;;;;;7868821;28;20202;-85
2023/12/12 18:40:30;;;;;;;14.77;4.03;;;6.70;99.90;;;;;;7846756;28;20268;-85
2023/12/12 18:44:16;;;;;;;9.90;3.43;;;6.70;99.90;;;;;;7852981;28;20193;-85
2023/12/12 18:48:03;;;;;;;6.60;2.90;;;6.70;99.90;;;;;;7848270;28;20182;-85
2023/12/12 18:51:49;;;;;;;11.43;3.20;;;6.70;99.90;;;;;;7859829;28;20277;-85
2023/12/12 18:55:34;;;;;;;9.73;2.80;;;6.70;99.90;;;;;;7853885;28;20209;-86
2023/12/12 18:59:20;;;;;;;5.63;2.60;;;6.60;99.90;;;;;;7855090;28;20178;-84
2023/12/12 19:03:06;;;;;;;9.63;3.13;;;6.60;99.90;;;;;;7852591;28;20173;-85
2023/12/12 19:06:59;;;;;;;11.73;3.57;;;6.50;99.90;;;;;;7849004;28;20212;-86
2023/12/12 19:10:46;;;;;;;7.33;2.97;;;6.50;99.90;;;;;;7863947;28;20204;-85
2023/12/12 19:14:31;;;;;;;14.07;3.57;;;6.50;99.90;;;;;;7855436;28;20205;-85
2023/12/12 19:18:17;;;;;;;13.47;3.23;;;6.60;99.90;;;;;;7863464;28;20239;-84
2023/12/12 19:22:06;;;;;;;10.63;3.17;;;6.60;99.90;;;;;;7864957;28;20187;-85
2023/12/12 19:25:52;;;;;;;7.17;2.90;;;6.60;99.90;;;;;;7853866;28;20242;-85
2023/12/12 19:29:37;;;;;;;13.40;3.13;;;6.60;99.90;;;;;;7852058;28;20200;-84
2023/12/12 19:33:25;;;;;;;8.57;3.27;;;6.60;99.90;;;;;;7846082;28;20208;-84
2023/12/12 19:37:11;;;;;;;9.83;3.30;;;6.50;99.90;;;;;;7840605;28;20177;-85
2023/12/12 19:40:56;;;;;;;10.40;3.83;;;6.60;99.90;;;;;;7854700;28;20178;-84
2023/12/12 19:44:43;;;;;;;9.37;3.20;;;6.60;99.90;;;;;;7840411;28;20296;-85
2023/12/12 19:48:29;;;;;;;14.77;4.17;;;6.60;99.90;;;;;;7842641;28;20606;-85
2023/12/12 19:52:15;;;;;;;10.43;4.07;;;6.60;99.90;;;;;;7843608;28;20211;-86